createdAt,value
2022-08-25T00:01:38.035Z,2.70
2022-08-25T00:04:08.434Z,2.38
2022-08-25T00:06:35.978Z,2.42
2022-08-25T00:09:03.366Z,2.40
2022-08-25T00:11:31.422Z,2.80
2022-08-25T00:14:02.765Z,2.85
2022-08-25T00:16:31.568Z,2.50
2022-08-25T00:19:05.414Z,2.53
2022-08-25T00:21:32.408Z,2.67
2022-08-25T00:23:59.770Z,2.50
2022-08-25T00:26:27.730Z,2.60
2022-08-25T00:28:55.217Z,2.47
2022-08-25T00:31:37.741Z,2.40
2022-08-25T00:34:11.786Z,2.80
2022-08-25T00:36:39.279Z,2.72
2022-08-25T00:39:07.603Z,2.30
2022-08-25T00:41:36.311Z,2.63
2022-08-25T00:44:05.788Z,2.53
2022-08-25T00:46:44.129Z,2.55
2022-08-25T00:49:32.684Z,2.63
2022-08-25T00:52:15.276Z,2.40
2022-08-25T00:54:53.753Z,2.50
2022-08-25T00:57:34.540Z,2.28
2022-08-25T01:00:07.462Z,2.60
2022-08-25T01:02:34.435Z,2.47
2022-08-25T01:05:01.374Z,2.40
2022-08-25T01:07:28.317Z,2.60
2022-08-25T01:09:55.730Z,2.70
2022-08-25T01:12:22.849Z,2.47
2022-08-25T01:14:50.149Z,2.70
2022-08-25T01:17:17.177Z,2.50
2022-08-25T01:19:44.216Z,2.40
2022-08-25T01:22:12.101Z,2.50
2022-08-25T01:24:45.493Z,2.53
2022-08-25T01:27:12.686Z,2.65
2022-08-25T01:29:39.784Z,2.60
2022-08-25T01:32:09.032Z,2.67
2022-08-25T01:34:37.606Z,2.65
2022-08-25T01:37:04.861Z,2.85
2022-08-25T01:39:33.920Z,2.45
2022-08-25T01:42:04.751Z,3.00
2022-08-25T01:44:32.443Z,2.30
2022-08-25T01:46:59.367Z,2.80
2022-08-25T01:49:26.281Z,2.67
2022-08-25T01:52:22.541Z,2.90
2022-08-25T01:54:49.478Z,2.40
2022-08-25T01:57:16.597Z,2.95
2022-08-25T01:59:44.881Z,2.30
2022-08-25T02:02:11.929Z,2.40
2022-08-25T02:04:39.532Z,2.55
2022-08-25T02:07:08.497Z,3.00
2022-08-25T02:09:36.284Z,3.60
2022-08-25T02:12:03.506Z,3.33
2022-08-25T02:14:30.457Z,3.70
2022-08-25T02:16:57.513Z,3.80
2022-08-25T02:19:24.680Z,3.85
2022-08-25T02:21:51.699Z,3.78
2022-08-25T02:24:18.844Z,4.03
2022-08-25T02:26:45.810Z,3.78
2022-08-25T02:29:13.049Z,3.78
2022-08-25T02:31:40.611Z,4.03
2022-08-25T02:34:07.770Z,3.78
2022-08-25T02:36:34.869Z,3.80
2022-08-25T02:39:02.029Z,3.60
2022-08-25T02:41:31.839Z,3.75
2022-08-25T02:44:02.338Z,3.65
2022-08-25T02:46:29.459Z,3.60
2022-08-25T02:48:56.509Z,3.75
2022-08-25T02:51:24.258Z,3.90
2022-08-25T02:53:51.141Z,3.78
2022-08-25T02:56:18.857Z,3.70
2022-08-25T02:58:46.232Z,4.38
2022-08-25T03:01:13.414Z,4.05
2022-08-25T03:03:40.646Z,3.72
2022-08-25T03:06:09.421Z,4.18
2022-08-25T03:08:37.055Z,4.25
2022-08-25T03:11:05.096Z,4.45
2022-08-25T03:13:32.334Z,4.03
2022-08-25T03:16:02.976Z,4.50
2022-08-25T03:18:30.265Z,4.15
2022-08-25T03:20:57.846Z,4.63
2022-08-25T03:23:24.907Z,4.22
2022-08-25T03:26:12.239Z,4.55
2022-08-25T03:28:39.171Z,4.43
2022-08-25T03:31:06.236Z,4.20
2022-08-25T03:33:33.125Z,4.10
2022-08-25T03:36:00.085Z,4.18
2022-08-25T03:38:27.442Z,4.05
2022-08-25T03:40:54.499Z,4.30
2022-08-25T03:43:21.432Z,4.20
2022-08-25T03:45:48.489Z,4.28
2022-08-25T03:48:16.138Z,4.78
2022-08-25T03:50:51.838Z,4.32
2022-08-25T03:53:19.840Z,4.13
2022-08-25T03:55:46.906Z,4.40
2022-08-25T03:58:14.153Z,4.57
2022-08-25T04:00:41.018Z,4.65
2022-08-25T04:03:07.991Z,4.65
2022-08-25T04:05:35.337Z,5.07
2022-08-25T04:08:02.478Z,4.90
2022-08-25T04:10:29.727Z,4.80
2022-08-25T04:12:57.331Z,5.00
2022-08-25T04:15:30.163Z,5.10
2022-08-25T04:18:03.750Z,4.90
2022-08-25T04:20:30.759Z,5.05
2022-08-25T04:23:00.638Z,4.72
2022-08-25T04:25:27.643Z,4.95
2022-08-25T04:27:55.299Z,5.63
2022-08-25T04:30:22.413Z,4.53
2022-08-25T04:32:49.674Z,4.70
2022-08-25T04:35:16.741Z,5.10
2022-08-25T04:37:43.634Z,5.38
2022-08-25T04:40:11.403Z,6.68
2022-08-25T04:42:39.346Z,6.70
2022-08-25T04:45:06.877Z,6.80
2022-08-25T04:47:39.483Z,8.07
2022-08-25T04:50:07.361Z,6.90
2022-08-25T04:52:34.295Z,7.28
2022-08-25T04:55:01.255Z,7.97
2022-08-25T04:57:28.332Z,7.72
2022-08-25T04:59:55.642Z,7.72
2022-08-25T05:02:25.202Z,7.47
2022-08-25T05:04:52.336Z,8.15
2022-08-25T05:07:19.292Z,7.75
2022-08-25T05:09:46.249Z,7.32
2022-08-25T05:12:13.425Z,8.18
2022-08-25T05:14:40.349Z,8.02
2022-08-25T05:17:07.882Z,7.13
2022-08-25T05:19:36.135Z,7.50
2022-08-25T05:22:03.109Z,7.38
2022-08-25T05:24:29.989Z,6.75
2022-08-25T05:26:56.990Z,6.72
2022-08-25T05:29:23.865Z,6.93
2022-08-25T05:31:51.118Z,7.05
2022-08-25T05:34:19.016Z,7.68
2022-08-25T05:36:46.390Z,7.88
2022-08-25T05:39:13.295Z,8.18
2022-08-25T05:41:40.224Z,7.88
2022-08-25T05:44:07.198Z,7.97
2022-08-25T05:46:34.098Z,7.72
2022-08-25T05:49:01.086Z,8.93
2022-08-25T05:51:28.025Z,8.10
2022-08-25T05:53:55.040Z,8.43
2022-08-25T05:56:21.964Z,8.40
2022-08-25T05:58:48.880Z,8.30
2022-08-25T06:01:43.397Z,8.63
2022-08-25T06:04:12.663Z,8.88
2022-08-25T06:06:39.746Z,10.30
2022-08-25T06:09:08.762Z,10.25
2022-08-25T06:11:37.350Z,10.30
2022-08-25T06:14:04.778Z,9.98
2022-08-25T06:16:31.903Z,11.45
2022-08-25T06:18:59.093Z,12.88
2022-08-25T06:21:26.002Z,12.10
2022-08-25T06:23:52.918Z,12.00
2022-08-25T06:26:21.302Z,12.27
2022-08-25T06:28:50.082Z,12.75
2022-08-25T06:31:17.272Z,12.27
2022-08-25T06:33:44.328Z,12.23
2022-08-25T06:36:11.227Z,12.50
2022-08-25T06:38:38.170Z,14.15
2022-08-25T06:41:05.839Z,13.02
2022-08-25T06:43:33.284Z,13.23
2022-08-25T06:46:15.364Z,12.25
2022-08-25T06:48:42.325Z,13.85
2022-08-25T06:51:14.121Z,13.73
2022-08-25T06:56:08.551Z,12.13
2022-08-25T06:58:35.799Z,11.48
2022-08-25T07:01:20.894Z,11.82
2022-08-25T07:03:48.420Z,10.80
2022-08-25T07:06:18.539Z,10.23
2022-08-25T07:08:46.588Z,11.05
2022-08-25T07:11:16.407Z,10.35
2022-08-25T07:13:44.613Z,11.63
2022-08-25T07:16:11.667Z,10.27
2022-08-25T07:18:38.678Z,10.48
2022-08-25T07:21:05.866Z,11.65
2022-08-25T07:23:36.555Z,10.65
2022-08-25T07:29:01.995Z,11.65
2022-08-25T07:31:30.275Z,11.95
2022-08-25T07:34:16.670Z,12.15
2022-08-25T07:36:44.293Z,11.25
2022-08-25T07:39:11.382Z,11.40
2022-08-25T07:41:39.695Z,11.23
2022-08-25T07:44:06.918Z,11.52
2022-08-25T07:46:34.192Z,11.45
2022-08-25T07:49:01.858Z,10.85
2022-08-25T07:51:28.907Z,10.35
2022-08-25T07:53:55.899Z,10.77
2022-08-25T07:56:23.797Z,10.80
2022-08-25T07:58:50.712Z,9.55
2022-08-25T08:01:18.997Z,8.73
2022-08-25T08:03:51.232Z,9.18
2022-08-25T08:06:20.535Z,9.48
2022-08-25T08:08:49.276Z,9.00
2022-08-25T08:11:20.621Z,9.93
2022-08-25T08:13:47.910Z,10.38
2022-08-25T08:16:18.646Z,9.30
2022-08-25T08:18:46.004Z,9.65
2022-08-25T08:21:19.295Z,8.50
2022-08-25T08:23:48.504Z,9.05
2022-08-25T08:26:16.842Z,8.63
2022-08-25T08:28:43.978Z,7.88
2022-08-25T08:31:11.036Z,8.90
2022-08-25T08:33:40.872Z,9.30
2022-08-25T08:36:09.799Z,9.32
2022-08-25T08:38:37.123Z,8.80
2022-08-25T08:42:11.681Z,9.70
2022-08-25T08:44:52.750Z,7.95
2022-08-25T08:47:38.514Z,7.72
2022-08-25T08:50:22.123Z,7.32
2022-08-25T08:53:02.934Z,8.80
2022-08-25T08:55:35.976Z,7.20
2022-08-25T08:58:07.585Z,7.47
2022-08-25T09:00:51.853Z,9.02
2022-08-25T09:03:29.755Z,9.32
2022-08-25T09:05:58.685Z,8.73
2022-08-25T09:08:26.602Z,9.48
2022-08-25T09:11:10.935Z,9.52
2022-08-25T09:13:55.319Z,8.75
2022-08-25T09:16:55.629Z,8.80
2022-08-25T09:19:32.088Z,8.57
2022-08-25T09:22:34.011Z,9.02
2022-08-25T09:25:22.101Z,9.45
2022-08-25T09:28:12.546Z,7.50
2022-08-25T09:31:09.633Z,7.63
2022-08-25T09:33:36.597Z,7.82
2022-08-25T09:36:05.920Z,7.32
2022-08-25T09:38:33.434Z,8.02
2022-08-25T09:41:01.474Z,7.65
2022-08-25T09:43:34.256Z,8.68
2022-08-25T09:46:18.092Z,9.00
2022-08-25T09:48:56.937Z,8.27
2022-08-25T09:51:38.333Z,8.68
2022-08-25T09:54:13.120Z,7.00
2022-08-25T09:57:01.854Z,7.45
2022-08-25T09:59:34.870Z,6.50
2022-08-25T10:02:05.596Z,6.88
2022-08-25T10:04:37.151Z,5.82
2022-08-25T10:07:28.409Z,5.93
2022-08-25T10:10:03.226Z,5.80
2022-08-25T10:12:36.797Z,5.03
2022-08-25T10:15:29.449Z,5.45
2022-08-25T10:18:25.712Z,4.03
2022-08-25T10:21:12.014Z,3.75
2022-08-25T10:23:51.573Z,4.45
2022-08-25T10:26:36.834Z,4.30
2022-08-25T10:29:35.761Z,4.43
2022-08-25T10:32:12.454Z,4.40
2022-08-25T10:34:44.419Z,3.95
2022-08-25T10:37:24.142Z,3.38
2022-08-25T10:40:21.824Z,3.83
2022-08-25T10:43:09.158Z,4.78
2022-08-25T10:45:45.873Z,5.13
2022-08-25T10:48:34.883Z,4.80
2022-08-25T10:51:43.829Z,4.90
2022-08-25T10:54:22.534Z,4.60
2022-08-25T10:57:13.167Z,4.70
2022-08-25T10:59:59.027Z,3.90
2022-08-25T11:03:04.079Z,3.88
2022-08-25T11:05:42.604Z,4.22
2022-08-25T11:08:28.448Z,4.32
2022-08-25T11:11:09.268Z,4.50
2022-08-25T11:13:50.831Z,4.35
2022-08-25T11:16:34.002Z,3.70
2022-08-25T11:19:19.845Z,3.40
2022-08-25T11:22:05.972Z,2.97
2022-08-25T11:24:51.520Z,3.17
2022-08-25T11:27:24.629Z,3.78
2022-08-25T11:30:12.577Z,3.70
2022-08-25T11:32:39.795Z,3.42
2022-08-25T11:35:09.223Z,2.92
2022-08-25T11:37:45.679Z,3.10
2022-08-25T11:40:28.867Z,3.50
2022-08-25T11:42:59.799Z,3.05
2022-08-25T11:45:40.830Z,3.60
2022-08-25T11:48:42.408Z,3.22
2022-08-25T11:51:11.208Z,4.07
2022-08-25T11:53:42.541Z,3.45
2022-08-25T11:56:32.562Z,3.53
2022-08-25T11:59:02.419Z,2.70
2022-08-25T12:01:43.181Z,2.65
2022-08-25T12:04:44.707Z,2.38
2022-08-25T12:09:51.346Z,2.72
2022-08-25T12:12:31.327Z,3.10
2022-08-25T12:15:14.659Z,2.50
2022-08-25T12:17:41.683Z,3.05
2022-08-25T12:20:08.708Z,3.15
2022-08-25T12:22:35.576Z,3.00
2022-08-25T12:25:24.507Z,3.30
2022-08-25T12:28:17.538Z,3.13
2022-08-25T12:30:52.993Z,2.90
2022-08-25T12:33:34.971Z,2.88
2022-08-25T12:36:03.879Z,3.25
2022-08-25T12:38:39.847Z,3.03
2022-08-25T12:41:14.901Z,3.20
2022-08-25T12:43:44.110Z,2.40
2022-08-25T12:46:20.133Z,2.10
2022-08-25T12:48:57.827Z,2.20
2022-08-25T12:51:48.834Z,1.73
2022-08-25T12:54:36.427Z,2.00
2022-08-25T12:57:41.953Z,2.00
2022-08-25T13:00:21.299Z,1.63
2022-08-25T13:03:02.419Z,2.10
2022-08-25T13:05:48.082Z,1.90
2022-08-25T13:08:37.053Z,2.10
2022-08-25T13:11:04.786Z,1.90
2022-08-25T13:13:31.834Z,2.03
2022-08-25T13:16:04.829Z,2.35
2022-08-25T13:18:33.580Z,2.53
2022-08-25T13:21:29.116Z,1.98
2022-08-25T13:24:04.681Z,2.22
2022-08-25T13:26:34.445Z,2.10
2022-08-25T13:29:11.525Z,2.40
2022-08-25T13:31:49.962Z,2.75
2022-08-25T13:34:24.157Z,2.03
2022-08-25T13:37:32.401Z,2.00
2022-08-25T13:40:28.949Z,1.90
2022-08-25T13:43:01.256Z,1.80
2022-08-25T13:45:31.668Z,1.90
2022-08-25T13:47:58.990Z,1.80
2022-08-25T13:50:26.374Z,1.88
2022-08-25T13:52:55.697Z,2.10
2022-08-25T13:55:51.217Z,2.30
2022-08-25T13:58:44.860Z,2.20
2022-08-25T14:01:47.721Z,2.22
2022-08-25T14:04:32.927Z,2.40
2022-08-25T14:07:19.460Z,2.30
2022-08-25T14:09:52.348Z,2.00
2022-08-25T14:12:41.567Z,1.88
2022-08-25T14:15:17.721Z,1.70
2022-08-25T14:18:09.549Z,1.80
2022-08-25T14:20:45.450Z,1.60
2022-08-25T14:23:16.192Z,1.40
2022-08-25T14:25:46.435Z,1.60
2022-08-25T14:51:22.872Z,1.60
2022-08-25T14:53:49.808Z,1.67
2022-08-25T14:56:17.778Z,1.73
2022-08-25T14:58:51.014Z,1.70
2022-08-25T15:01:29.474Z,1.50
2022-08-25T15:04:11.697Z,1.70
2022-08-25T15:06:38.971Z,1.70
2022-08-25T15:09:08.035Z,1.80
2022-08-25T15:11:35.346Z,1.60
2022-08-25T15:14:02.384Z,1.60
2022-08-25T15:16:37.911Z,1.60
2022-08-25T15:19:14.493Z,1.75
2022-08-25T15:21:43.609Z,1.70
2022-08-25T15:24:10.727Z,2.00
2022-08-25T15:29:23.188Z,2.20
2022-08-25T15:31:50.380Z,2.10
2022-08-25T15:34:17.549Z,2.80
2022-08-25T15:36:45.539Z,2.78
2022-08-25T15:39:15.011Z,2.85
2022-08-25T15:42:00.420Z,2.85
2022-08-25T15:44:29.639Z,2.95
2022-08-25T15:46:58.636Z,2.90
2022-08-25T15:49:26.315Z,2.78
2022-08-25T15:51:56.784Z,3.10
2022-08-25T15:54:26.956Z,3.20
2022-08-25T15:56:54.999Z,3.10
2022-08-25T15:59:21.937Z,2.90
2022-08-25T16:01:49.226Z,2.92
2022-08-25T16:04:16.437Z,2.92
2022-08-25T16:06:44.785Z,2.95
2022-08-25T16:09:12.199Z,2.63
2022-08-25T16:11:39.237Z,2.63
2022-08-25T16:14:06.319Z,3.10
2022-08-25T16:16:33.596Z,2.88
2022-08-25T16:19:01.536Z,3.00
2022-08-25T16:21:31.113Z,3.00
2022-08-25T16:24:02.601Z,3.00
2022-08-25T16:26:32.506Z,2.80
2022-08-25T16:28:59.483Z,2.53
2022-08-25T16:31:26.552Z,2.80
2022-08-25T16:33:56.169Z,3.28
2022-08-25T16:36:27.194Z,2.92
2022-08-25T16:38:56.452Z,3.10
2022-08-25T16:41:34.144Z,3.38
2022-08-25T16:44:04.067Z,3.63
2022-08-25T16:46:31.173Z,4.05
2022-08-25T16:49:02.614Z,4.30
2022-08-25T16:51:32.400Z,4.55
2022-08-25T16:54:22.377Z,5.05
2022-08-25T16:56:54.812Z,5.00
2022-08-25T16:59:22.274Z,5.70
2022-08-25T17:01:50.960Z,6.22
2022-08-25T17:04:17.876Z,6.38
2022-08-25T17:06:49.402Z,6.78
2022-08-25T17:09:22.820Z,7.68
2022-08-25T17:11:54.091Z,8.63
2022-08-25T17:14:21.596Z,10.85
2022-08-25T17:16:48.704Z,8.65
2022-08-25T17:19:17.768Z,8.68
2022-08-25T17:21:46.213Z,8.40
2022-08-25T17:24:13.930Z,9.18
2022-08-25T17:26:41.733Z,9.35
2022-08-25T17:29:09.540Z,10.48
2022-08-25T17:31:40.100Z,8.77
2022-08-25T17:34:12.109Z,9.25
2022-08-25T17:36:43.570Z,9.10
2022-08-25T17:39:11.692Z,9.10
2022-08-25T17:41:38.719Z,8.55
2022-08-25T17:44:10.279Z,9.65
2022-08-25T17:46:38.456Z,11.50
2022-08-25T17:49:08.877Z,13.25
2022-08-25T17:51:35.809Z,12.57
2022-08-25T17:54:02.745Z,10.38
2022-08-25T17:56:30.003Z,10.10
2022-08-25T17:58:57.205Z,9.52
2022-08-25T18:01:29.025Z,8.88
2022-08-25T18:03:56.601Z,9.20
2022-08-25T18:06:23.585Z,9.50
2022-08-25T18:08:53.674Z,9.40
2022-08-25T18:11:26.464Z,9.57
2022-08-25T18:13:54.055Z,9.65
2022-08-25T18:16:21.385Z,10.20
2022-08-25T18:18:48.740Z,9.57
2022-08-25T18:21:16.507Z,9.50
2022-08-25T18:23:43.480Z,9.18
2022-08-25T18:26:13.053Z,9.55
2022-08-25T18:28:40.280Z,9.45
2022-08-25T18:31:12.074Z,9.93
2022-08-25T18:33:42.026Z,10.38
2022-08-25T18:36:09.556Z,9.80
2022-08-25T18:38:57.787Z,9.73
2022-08-25T18:41:25.773Z,9.45
2022-08-25T18:43:53.246Z,9.82
2022-08-25T18:46:22.797Z,10.32
2022-08-25T18:48:52.978Z,9.35
2022-08-25T18:51:22.853Z,9.60
2022-08-25T18:53:51.195Z,9.95
2022-08-25T18:56:22.449Z,9.70
2022-08-25T18:58:49.440Z,9.68
2022-08-25T19:01:17.036Z,9.05
2022-08-25T19:03:45.408Z,9.40
2022-08-25T19:06:12.280Z,9.40
2022-08-25T19:08:41.940Z,10.30
2022-08-25T19:11:09.890Z,9.55
2022-08-25T19:13:37.811Z,9.98
2022-08-25T19:16:32.112Z,9.88
2022-08-25T19:19:01.065Z,9.43
2022-08-25T19:21:31.248Z,9.30
2022-08-25T19:23:58.231Z,11.60
2022-08-25T19:26:25.646Z,9.82
2022-08-25T19:28:52.727Z,9.05
2022-08-25T19:31:24.056Z,8.98
2022-08-25T19:33:52.503Z,8.70
2022-08-25T19:36:21.376Z,8.55
2022-08-25T19:38:51.769Z,8.35
2022-08-25T19:41:19.470Z,8.60
2022-08-25T19:43:55.735Z,8.50
2022-08-25T19:46:33.336Z,8.80
2022-08-25T19:49:08.800Z,8.25
2022-08-25T19:51:44.900Z,8.50
2022-08-25T19:54:13.759Z,9.63
2022-08-25T19:56:43.512Z,10.48
2022-08-25T19:59:34.177Z,9.77
2022-08-25T20:02:08.731Z,10.52
2022-08-25T20:04:37.775Z,8.63
2022-08-25T20:07:04.715Z,7.88
2022-08-25T20:09:39.099Z,8.32
2022-08-25T20:12:08.664Z,7.70
2022-08-25T20:14:36.508Z,8.73
2022-08-25T20:17:04.024Z,8.88
2022-08-25T20:19:41.669Z,8.90
2022-08-25T20:22:11.229Z,10.30
2022-08-25T20:24:56.240Z,9.40
2022-08-25T20:27:27.281Z,10.18
2022-08-25T20:29:54.357Z,9.90
2022-08-25T20:32:21.311Z,9.45
2022-08-25T20:34:48.596Z,9.88
2022-08-25T20:37:16.852Z,9.30
2022-08-25T20:39:46.742Z,9.90
2022-08-25T20:42:13.981Z,9.63
2022-08-25T20:44:42.237Z,9.20
2022-08-25T20:47:10.394Z,9.48
2022-08-25T20:49:39.202Z,8.38
2022-08-25T20:52:06.679Z,8.55
2022-08-25T20:54:33.709Z,8.70
2022-08-25T20:57:01.010Z,9.25
2022-08-25T20:59:29.486Z,9.70
2022-08-25T21:01:56.690Z,8.57
2022-08-25T21:04:25.374Z,9.27
2022-08-25T21:06:52.909Z,9.63
2022-08-25T21:09:21.435Z,8.93
2022-08-25T21:11:48.355Z,8.25
2022-08-25T21:14:16.748Z,8.10
2022-08-25T21:16:47.110Z,7.53
2022-08-25T21:19:16.048Z,7.88
2022-08-25T21:21:43.016Z,7.68
2022-08-25T21:24:10.312Z,7.85
2022-08-25T21:26:37.715Z,8.00
2022-08-25T21:29:17.109Z,8.80
2022-08-25T21:31:44.212Z,8.68
2022-08-25T21:34:11.885Z,8.35
2022-08-25T21:36:38.836Z,7.95
2022-08-25T21:39:05.963Z,7.50
2022-08-25T21:41:33.781Z,7.80
2022-08-25T21:44:01.422Z,7.85
2022-08-25T21:46:30.468Z,7.63
2022-08-25T21:48:58.420Z,7.15
2022-08-25T21:51:28.747Z,7.40
2022-08-25T21:54:10.772Z,7.00
2022-08-25T21:56:59.752Z,7.20
2022-08-25T21:59:32.475Z,6.75
2022-08-25T22:02:01.192Z,7.13
2022-08-25T22:04:28.285Z,6.90
2022-08-25T22:06:55.795Z,6.30
2022-08-25T22:09:25.071Z,6.53
2022-08-25T22:11:54.590Z,6.82
2022-08-25T22:14:21.959Z,6.80
2022-08-25T22:16:48.804Z,6.50
2022-08-25T22:19:15.748Z,6.90
2022-08-25T22:21:43.360Z,6.13
2022-08-25T22:24:10.386Z,6.35
2022-08-25T22:26:37.616Z,6.70
2022-08-25T22:29:05.254Z,6.38
2022-08-25T22:31:33.619Z,6.25
2022-08-25T22:34:00.938Z,6.18
2022-08-25T22:36:34.643Z,6.18
2022-08-25T22:39:02.291Z,6.25
2022-08-25T22:41:29.928Z,6.05
2022-08-25T22:43:57.728Z,6.30
2022-08-25T22:46:25.715Z,5.82
2022-08-25T22:48:55.465Z,5.93
2022-08-25T22:51:27.667Z,6.10
2022-08-25T22:56:29.776Z,6.40
2022-08-25T22:59:01.221Z,6.63
2022-08-25T23:01:28.199Z,6.60
2022-08-25T23:03:55.050Z,6.03
2022-08-25T23:06:24.693Z,6.80
2022-08-25T23:08:53.701Z,6.60
2022-08-25T23:11:21.163Z,6.80
2022-08-25T23:13:48.111Z,5.95
2022-08-25T23:16:15.637Z,6.93
2022-08-25T23:18:44.656Z,7.20
2022-08-25T23:21:38.117Z,7.18
2022-08-25T23:24:10.765Z,7.00
2022-08-25T23:26:42.553Z,6.82
2022-08-25T23:29:18.401Z,6.95
2022-08-25T23:31:46.386Z,6.95
2022-08-25T23:34:13.498Z,7.18
2022-08-25T23:36:40.508Z,7.05
2022-08-25T23:39:07.645Z,7.32
2022-08-25T23:41:36.817Z,7.30
2022-08-25T23:44:05.395Z,7.45
2022-08-25T23:46:33.118Z,7.10
2022-08-25T23:49:00.212Z,7.50
2022-08-25T23:51:28.666Z,7.93
2022-08-25T23:53:55.852Z,7.47
2022-08-25T23:56:25.989Z,7.20
2022-08-25T23:58:53.115Z,7.40
